createdAt,value
2022-12-08T00:02:10.989Z,14.23
2022-12-08T00:07:30.624Z,14.43
2022-12-08T00:12:35.396Z,15.18
2022-12-08T00:17:40.128Z,15.45
2022-12-08T00:22:47.500Z,13.63
2022-12-08T00:27:52.498Z,14.48
2022-12-08T00:32:57.316Z,17.27
2022-12-08T00:38:04.778Z,13.63
2022-12-08T00:43:09.588Z,14.93
2022-12-08T00:48:14.457Z,15.20
2022-12-08T00:53:21.732Z,13.57
2022-12-08T00:58:26.424Z,14.90
2022-12-08T01:03:31.133Z,13.95
2022-12-08T01:08:38.759Z,13.88
2022-12-08T01:13:43.701Z,15.13
2022-12-08T01:18:48.400Z,14.07
2022-12-08T01:23:55.756Z,14.00
2022-12-08T01:29:00.495Z,13.52
2022-12-08T01:34:05.257Z,15.85
2022-12-08T01:39:16.613Z,17.02
2022-12-08T01:44:36.189Z,20.13
2022-12-08T01:49:40.878Z,17.65
2022-12-08T01:54:50.473Z,16.30
2022-12-08T01:59:57.490Z,17.17
2022-12-08T02:05:02.992Z,15.18
2022-12-08T02:10:11.800Z,18.33
2022-12-08T02:15:16.994Z,22.00
2022-12-08T02:20:37.438Z,21.55
2022-12-08T02:25:51.798Z,17.88
2022-12-08T02:31:01.298Z,15.30
2022-12-08T02:36:13.507Z,17.93
2022-12-08T02:41:23.774Z,16.55
2022-12-08T02:46:32.085Z,18.60
2022-12-08T02:51:39.478Z,25.05
2022-12-08T02:56:52.934Z,18.55
2022-12-08T03:02:16.374Z,17.20
2022-12-08T03:07:28.249Z,16.63
2022-12-08T03:12:34.968Z,17.15
2022-12-08T03:17:40.638Z,16.92
2022-12-08T03:22:48.872Z,16.05
2022-12-08T03:27:54.272Z,15.30
2022-12-08T03:33:01.924Z,15.57
2022-12-08T03:38:10.888Z,16.30
2022-12-08T03:43:15.574Z,15.55
2022-12-08T03:48:20.353Z,16.00
2022-12-08T03:53:27.646Z,16.15
2022-12-08T03:58:37.255Z,16.63
2022-12-08T04:03:42.250Z,24.23
2022-12-08T04:08:49.974Z,24.85
2022-12-08T04:13:54.707Z,19.73
2022-12-08T04:18:59.455Z,17.10
2022-12-08T04:24:08.070Z,17.20
2022-12-08T04:29:12.808Z,16.73
2022-12-08T04:34:17.512Z,16.42
2022-12-08T04:39:24.880Z,16.83
2022-12-08T04:44:29.576Z,17.40
2022-12-08T04:49:34.291Z,19.20
2022-12-08T04:54:41.621Z,17.88
2022-12-08T04:59:46.259Z,17.38
2022-12-08T05:04:51.098Z,17.60
2022-12-08T05:09:58.373Z,16.17
2022-12-08T05:15:03.037Z,15.02
2022-12-08T05:20:08.359Z,17.20
2022-12-08T05:25:15.789Z,16.05
2022-12-08T05:30:20.560Z,16.27
2022-12-08T05:35:25.233Z,16.42
2022-12-08T05:40:32.683Z,14.65
2022-12-08T05:45:37.458Z,14.98
2022-12-08T05:50:42.277Z,14.52
2022-12-08T05:55:49.600Z,17.95
2022-12-08T06:00:54.403Z,14.02
2022-12-08T06:05:59.479Z,13.75
2022-12-08T06:11:06.797Z,22.15
2022-12-08T06:16:11.498Z,15.98
2022-12-08T06:21:16.974Z,12.60
2022-12-08T06:26:24.515Z,12.93
2022-12-08T06:31:29.739Z,13.20
2022-12-08T06:36:35.148Z,12.70
2022-12-08T06:41:54.564Z,11.43
2022-12-08T06:46:59.536Z,11.65
2022-12-08T06:52:04.233Z,12.30
2022-12-08T06:57:11.544Z,12.20
2022-12-08T07:02:17.452Z,11.65
2022-12-08T07:07:22.110Z,11.32
2022-12-08T07:12:29.574Z,10.77
2022-12-08T07:17:34.257Z,12.30
2022-12-08T07:22:39.851Z,13.80
2022-12-08T07:27:47.283Z,10.93
2022-12-08T07:32:52.008Z,9.80
2022-12-08T07:37:57.959Z,11.30
2022-12-08T07:43:05.249Z,18.52
2022-12-08T07:48:09.956Z,12.20
2022-12-08T07:53:14.626Z,10.20
2022-12-08T07:58:21.941Z,8.60
2022-12-08T08:03:26.648Z,12.10
2022-12-08T08:08:31.492Z,11.60
2022-12-08T08:13:39.000Z,11.77
2022-12-08T08:18:43.745Z,10.05
2022-12-08T08:23:48.492Z,9.35
2022-12-08T08:28:55.840Z,9.77
2022-12-08T08:34:05.120Z,10.15
2022-12-08T08:39:10.072Z,10.88
2022-12-08T08:44:18.588Z,9.95
2022-12-08T08:49:23.349Z,13.70
2022-12-08T09:00:13.499Z,11.27
2022-12-08T09:05:18.715Z,11.70
2022-12-08T09:10:23.497Z,11.65
2022-12-08T09:15:30.972Z,11.65
2022-12-08T09:20:35.820Z,12.25
2022-12-08T09:25:40.933Z,14.38
2022-12-08T09:30:48.226Z,14.63
2022-12-08T09:35:52.871Z,14.73
2022-12-08T09:40:58.714Z,18.02
2022-12-08T09:46:07.785Z,11.55
2022-12-08T09:51:13.356Z,12.55
2022-12-08T09:56:19.292Z,12.07
2022-12-08T10:01:29.802Z,15.52
2022-12-08T10:06:36.154Z,19.52
2022-12-08T10:11:46.632Z,13.85
2022-12-08T10:16:56.767Z,18.70
2022-12-08T10:27:42.157Z,11.87
2022-12-08T10:32:51.961Z,10.65
2022-12-08T10:38:00.375Z,10.43
2022-12-08T10:43:05.353Z,11.13
2022-12-08T10:48:17.175Z,11.55
2022-12-08T10:53:24.493Z,9.65
2022-12-08T10:58:30.290Z,13.02
2022-12-08T11:03:42.391Z,12.10
2022-12-08T11:08:48.882Z,13.77
2022-12-08T11:13:54.424Z,35.72
2022-12-08T11:19:01.886Z,8.43
2022-12-08T11:24:20.950Z,8.77
2022-12-08T11:29:25.688Z,8.50
2022-12-08T11:34:35.128Z,7.70
2022-12-08T11:39:44.643Z,6.97
2022-12-08T11:44:52.316Z,7.57
2022-12-08T11:50:04.386Z,8.00
2022-12-08T11:55:19.507Z,7.82
2022-12-08T12:00:24.433Z,7.10
2022-12-08T12:11:07.272Z,7.72
2022-12-08T12:16:26.574Z,8.43
2022-12-08T12:21:36.441Z,10.60
2022-12-08T12:26:42.429Z,12.48
2022-12-08T12:31:53.124Z,16.52
2022-12-08T12:37:01.652Z,15.18
2022-12-08T12:42:07.196Z,21.05
2022-12-08T12:47:16.144Z,29.10
2022-12-08T12:52:35.784Z,28.58
2022-12-08T12:57:52.824Z,22.55
2022-12-08T13:02:58.953Z,24.40
2022-12-08T13:08:07.104Z,17.60
2022-12-08T13:13:21.846Z,14.18
2022-12-08T13:18:27.890Z,13.13
2022-12-08T13:23:45.626Z,15.98
2022-12-08T13:29:05.238Z,12.00
2022-12-08T13:34:15.960Z,12.02
2022-12-08T13:39:23.452Z,11.82
2022-12-08T14:01:00.155Z,15.60
2022-12-08T14:11:33.760Z,12.77
2022-12-08T14:16:40.612Z,14.68
2022-12-08T14:21:45.229Z,17.08
2022-12-08T14:26:53.410Z,25.15
2022-12-08T14:31:58.167Z,24.88
2022-12-08T14:37:02.854Z,17.42
2022-12-08T14:42:10.189Z,17.00
2022-12-08T14:47:21.294Z,17.50
2022-12-08T14:52:26.191Z,9.65
2022-12-08T14:57:36.651Z,10.27
2022-12-08T15:07:49.943Z,10.38
2022-12-08T15:13:08.786Z,12.75
2022-12-08T15:18:18.532Z,15.25
2022-12-08T15:23:28.663Z,14.18
2022-12-08T15:28:36.152Z,13.30
2022-12-08T15:33:41.467Z,14.65
2022-12-08T15:38:46.158Z,17.23
2022-12-08T15:43:53.622Z,19.63
2022-12-08T15:48:58.456Z,19.77
2022-12-08T15:54:03.169Z,19.38
2022-12-08T15:59:13.180Z,20.15
2022-12-08T16:05:11.499Z,22.33
2022-12-08T16:09:45.009Z,115.15
2022-12-08T16:20:18.292Z,35.22
2022-12-08T16:25:23.551Z,25.38
2022-12-08T16:30:31.372Z,21.95
2022-12-08T16:35:36.332Z,23.30
2022-12-08T16:41:01.056Z,34.15
2022-12-08T16:46:08.457Z,30.83
2022-12-08T16:51:22.007Z,44.70
2022-12-08T16:56:33.167Z,49.95
2022-12-08T17:01:41.125Z,52.97
2022-12-08T17:06:51.080Z,38.33
2022-12-08T17:12:01.890Z,30.85
2022-12-08T17:17:11.117Z,30.13
2022-12-08T17:22:15.745Z,63.50
2022-12-08T17:27:20.609Z,108.68
2022-12-08T17:32:28.033Z,66.88
2022-12-08T17:37:32.820Z,32.92
2022-12-08T17:42:38.803Z,63.17
2022-12-08T17:47:46.253Z,38.03
2022-12-08T17:52:53.057Z,60.78
2022-12-08T17:58:00.340Z,44.45
2022-12-08T18:03:07.755Z,52.42
2022-12-08T18:08:13.023Z,46.80
2022-12-08T18:13:17.928Z,35.22
2022-12-08T18:18:25.577Z,34.92
2022-12-08T18:23:30.375Z,38.08
2022-12-08T18:28:44.700Z,43.28
2022-12-08T18:33:52.530Z,35.75
2022-12-08T18:38:57.293Z,50.13
2022-12-08T18:44:02.049Z,48.08
2022-12-08T18:49:11.792Z,49.28
2022-12-08T18:54:22.118Z,52.38
2022-12-08T18:59:32.904Z,44.75
2022-12-08T19:04:40.362Z,76.38
2022-12-08T19:09:45.145Z,61.85
2022-12-08T19:14:50.044Z,32.58
2022-12-08T19:19:57.455Z,32.30
2022-12-08T19:25:02.150Z,34.25
2022-12-08T19:30:07.794Z,49.92
2022-12-08T19:35:15.505Z,44.65
2022-12-08T19:40:32.618Z,36.60
2022-12-08T19:45:38.308Z,41.05
2022-12-08T19:50:45.871Z,38.25
2022-12-08T19:55:50.937Z,59.67
2022-12-08T20:00:55.864Z,49.45
2022-12-08T20:06:03.266Z,33.30
2022-12-08T20:16:28.303Z,41.95
2022-12-08T20:27:16.336Z,30.48
2022-12-08T20:38:15.839Z,30.90
2022-12-08T20:43:23.311Z,31.25
2022-12-08T20:59:05.832Z,33.72
2022-12-08T21:04:13.950Z,32.03
2022-12-08T21:09:19.129Z,31.73
2022-12-08T21:14:26.970Z,36.50
2022-12-08T21:19:31.871Z,41.10
2022-12-08T21:24:36.713Z,29.88
2022-12-08T21:29:44.551Z,73.65
2022-12-08T21:34:49.520Z,37.25
2022-12-08T21:39:54.396Z,41.05
2022-12-08T21:45:01.954Z,36.55
2022-12-08T21:50:09.081Z,38.20
2022-12-08T21:55:14.835Z,38.90
2022-12-08T22:00:23.795Z,39.33
2022-12-08T22:05:29.906Z,35.75
2022-12-08T22:10:34.909Z,31.67
2022-12-08T22:15:42.585Z,35.15
2022-12-08T22:20:47.415Z,41.25
2022-12-08T22:25:58.844Z,41.72
2022-12-08T22:31:10.305Z,39.95
2022-12-08T22:36:17.411Z,39.72
2022-12-08T22:41:22.748Z,44.03
2022-12-08T22:46:36.117Z,36.25
2022-12-08T22:51:41.221Z,36.75
2022-12-08T22:56:46.299Z,31.92
2022-12-08T23:01:54.213Z,36.08
2022-12-08T23:06:58.944Z,33.72
2022-12-08T23:12:03.774Z,36.00
2022-12-08T23:17:11.283Z,30.88
2022-12-08T23:22:16.071Z,33.30
2022-12-08T23:27:20.867Z,31.63
2022-12-08T23:32:28.696Z,29.67
2022-12-08T23:37:33.603Z,30.63
2022-12-08T23:42:38.458Z,43.30
2022-12-08T23:47:46.040Z,44.78
2022-12-08T23:52:50.951Z,50.92
2022-12-08T23:57:55.791Z,43.97
